Time;durP1;ratioP1;P1;durP2;ratioP2;P2;SDS_P1;SDS_P2;PMS_P1;PMS_P2;Temp;Humidity;BMP_temperature;BMP_pressure;BME280_temperature;BME280_humidity;BME280_pressure;Samples;Min_cycle;Max_cycle;Signal;HPM_P1;HPM_P2
2022/11/22 00:00:38;;;;;;;;;;;;;;;12.00;72.78;98720.50;1052700;28;690;-74
2022/11/22 00:01:28;;;;;;;;;;;;;;;11.98;72.82;98721.69;1048711;28;748;-75
2022/11/22 00:02:19;;;;;;;;;;;;;;;11.98;72.86;98725.19;1050931;28;693;-74
2022/11/22 00:03:09;;;;;;;;;;;;;;;11.99;72.34;98723.38;1049444;28;949;-74
2022/11/22 00:03:59;;;;;;;;;;;;;;;12.01;71.92;98727.50;1054532;28;641;-74
2022/11/22 00:04:50;;;;;;;;;;;;;;;12.01;72.60;98719.50;1054342;28;1136;-74
2022/11/22 00:05:40;;;;;;;;;;;;;;;12.00;71.98;98717.84;1054471;28;673;-75
2022/11/22 00:06:31;;;;;;;;;;;;;;;12.00;71.86;98709.81;1053757;28;1193;-75
2022/11/22 00:07:21;;;;;;;;;;;;;;;12.00;72.73;98712.50;1052878;28;630;-75
2022/11/22 00:08:11;;;;;;;;;;;;;;;12.01;72.55;98716.84;1050092;28;708;-75
2022/11/22 00:09:02;;;;;;;;;;;;;;;11.99;72.04;98721.53;1050779;28;1123;-74
2022/11/22 00:09:52;;;;;;;;;;;;;;;12.00;72.19;98717.84;1049004;28;1974;-74
2022/11/22 00:10:43;;;;;;;;;;;;;;;12.01;72.74;98722.19;1049847;28;1222;-75
2022/11/22 00:11:33;;;;;;;;;;;;;;;12.01;71.86;98724.84;1049752;28;677;-75
2022/11/22 00:12:24;;;;;;;;;;;;;;;11.99;72.01;98726.88;1050868;28;1159;-75
2022/11/22 00:13:14;;;;;;;;;;;;;;;12.00;72.39;98717.03;1050347;28;589;-76
2022/11/22 00:14:04;;;;;;;;;;;;;;;12.01;72.84;98730.19;1053162;28;668;-76
2022/11/22 00:14:55;;;;;;;;;;;;;;;12.02;72.02;98726.53;1053607;28;1087;-76
2022/11/22 00:15:45;;;;;;;;;;;;;;;12.01;71.98;98722.19;1053268;28;1481;-76
2022/11/22 00:16:36;;;;;;;;;;;;;;;12.02;72.15;98729.19;1052639;28;638;-76
2022/11/22 00:17:26;;;;;;;;;;;;;;;12.02;72.42;98726.53;1052656;28;1353;-75
2022/11/22 00:18:17;;;;;;;;;;;;;;;12.01;72.44;98732.84;1053350;28;701;-75
2022/11/22 00:19:07;;;;;;;;;;;;;;;11.99;72.05;98718.84;1050569;28;641;-75
2022/11/22 00:19:57;;;;;;;;;;;;;;;11.99;72.11;98724.19;1052770;28;1151;-75
2022/11/22 00:20:48;;;;;;;;;;;;;;;11.99;72.20;98716.19;1054490;28;714;-74
2022/11/22 00:21:38;;;;;;;;;;;;;;;11.99;72.46;98718.03;1049276;28;657;-75
2022/11/22 00:22:29;;;;;;;;;;;;;;;11.98;72.58;98717.19;1052542;28;711;-75
2022/11/22 00:23:19;;;;;;;;;;;;;;;11.99;72.13;98718.03;1049155;28;641;-75
2022/11/22 00:24:09;;;;;;;;;;;;;;;11.98;72.04;98711.84;1052961;28;1296;-76
2022/11/22 00:25:00;;;;;;;;;;;;;;;11.99;72.39;98715.34;1049628;28;671;-76
2022/11/22 00:25:50;;;;;;;;;;;;;;;11.97;72.37;98715.50;1053113;28;1067;-76
2022/11/22 00:26:41;;;;;;;;;;;;;;;11.97;72.74;98712.84;1053840;28;639;-76
2022/11/22 00:27:31;;;;;;;;;;;;;;;11.97;72.05;98709.34;1050484;28;1225;-75
2022/11/22 00:28:22;;;;;;;;;;;;;;;11.96;72.61;98711.16;1053891;28;774;-75
2022/11/22 00:29:13;;;;;;;;;;;;;;;11.96;72.66;98713.84;1050275;28;643;-74
2022/11/22 00:30:03;;;;;;;;;;;;;;;11.96;72.38;98708.50;1048504;28;1889;-74
2022/11/22 00:30:54;;;;;;;;;;;;;;;11.96;72.34;98703.16;1049024;28;660;-74
2022/11/22 00:31:44;;;;;;;;;;;;;;;11.96;72.27;98708.50;1049741;28;716;-74
2022/11/22 00:32:35;;;;;;;;;;;;;;;11.98;72.92;98709.19;1054571;28;648;-74
2022/11/22 00:33:25;;;;;;;;;;;;;;;11.98;72.09;98708.34;1049815;28;1154;-74
2022/11/22 00:34:15;;;;;;;;;;;;;;;11.97;72.34;98702.16;1050030;28;633;-74
2022/11/22 00:35:06;;;;;;;;;;;;;;;11.96;72.78;98700.50;1050541;28;685;-75
2022/11/22 00:35:56;;;;;;;;;;;;;;;11.95;72.32;98704.16;1052693;28;773;-75
2022/11/22 00:36:47;;;;;;;;;;;;;;;11.96;72.78;98697.81;1050710;28;718;-75
2022/11/22 00:37:37;;;;;;;;;;;;;;;11.95;72.21;98706.00;1052562;28;1162;-74
2022/11/22 00:38:27;;;;;;;;;;;;;;;11.95;72.75;98706.81;1054308;28;718;-75
2022/11/22 00:39:18;;;;;;;;;;;;;;;11.96;72.44;98705.81;1053171;28;935;-75
2022/11/22 00:40:08;;;;;;;;;;;;;;;11.97;72.72;98720.00;1052105;28;642;-74
2022/11/22 00:40:59;;;;;;;;;;;;;;;11.96;73.14;98713.84;1052425;28;1213;-74
2022/11/22 00:41:49;;;;;;;;;;;;;;;11.96;72.42;98711.16;1053664;28;779;-74
2022/11/22 00:42:40;;;;;;;;;;;;;;;11.95;72.94;98717.50;1052656;28;1261;-75
2022/11/22 00:43:30;;;;;;;;;;;;;;;11.94;72.23;98710.50;1049601;28;646;-74
2022/11/22 00:44:20;;;;;;;;;;;;;;;11.96;73.08;98711.16;1046171;28;1128;-74
2022/11/22 00:45:11;;;;;;;;;;;;;;;11.97;72.72;98722.69;1050836;28;669;-74
2022/11/22 00:46:01;;;;;;;;;;;;;;;11.99;72.44;98718.03;1052361;28;1201;-74
2022/11/22 00:46:52;;;;;;;;;;;;;;;11.98;72.31;98717.19;1050887;28;625;-75
2022/11/22 00:47:42;;;;;;;;;;;;;;;11.97;72.97;98709.34;1053182;28;659;-75
2022/11/22 00:48:33;;;;;;;;;;;;;;;11.96;72.23;98713.84;1052368;28;673;-76
2022/11/22 00:49:23;;;;;;;;;;;;;;;11.95;72.98;98712.16;1052558;28;700;-76
2022/11/22 00:50:13;;;;;;;;;;;;;;;11.94;72.68;98715.00;1056111;28;1945;-76
2022/11/22 00:51:04;;;;;;;;;;;;;;;11.93;72.96;98711.47;1055518;28;803;-75
2022/11/22 00:51:54;;;;;;;;;;;;;;;11.92;73.01;98709.81;1060238;27;1166;-75
2022/11/22 00:52:45;;;;;;;;;;;;;;;11.91;72.42;98710.81;1061248;27;740;-75
2022/11/22 00:53:35;;;;;;;;;;;;;;;11.93;72.22;98707.97;1056810;28;1162;-75
2022/11/22 00:54:25;;;;;;;;;;;;;;;11.93;72.23;98706.16;1055281;28;862;-74
2022/11/22 00:55:16;;;;;;;;;;;;;;;11.93;72.31;98708.81;1055693;28;708;-75
2022/11/22 00:56:06;;;;;;;;;;;;;;;11.93;72.30;98711.47;1057435;28;1501;-75
2022/11/22 00:56:57;;;;;;;;;;;;;;;11.94;72.36;98702.47;1052550;28;669;-75
2022/11/22 00:57:47;;;;;;;;;;;;;;;11.93;72.91;98708.81;1057286;27;1154;-75
2022/11/22 00:58:38;;;;;;;;;;;;;;;11.95;73.02;98712.16;1052782;28;1089;-75
2022/11/22 00:59:28;;;;;;;;;;;;;;;11.93;72.46;98708.81;1056627;28;742;-75
2022/11/22 01:00:18;;;;;;;;;;;;;;;11.93;72.26;98708.81;1056119;28;1162;-74
2022/11/22 01:01:09;;;;;;;;;;;;;;;11.94;72.99;98709.66;1053146;28;655;-75
2022/11/22 01:01:59;;;;;;;;;;;;;;;11.94;72.67;98715.00;1054560;28;1154;-75
2022/11/22 01:02:50;;;;;;;;;;;;;;;11.95;72.14;98722.84;1053620;28;653;-75
2022/11/22 01:03:40;;;;;;;;;;;;;;;11.94;72.78;98725.66;1054551;28;1170;-74
2022/11/22 01:04:30;;;;;;;;;;;;;;;11.93;72.57;98719.50;1053290;28;692;-75
2022/11/22 01:05:21;;;;;;;;;;;;;;;11.93;72.44;98719.50;1056778;28;1178;-75
2022/11/22 01:06:11;;;;;;;;;;;;;;;11.93;73.15;98719.50;1053802;28;672;-75
2022/11/22 01:07:02;;;;;;;;;;;;;;;11.94;72.42;98731.84;1053366;28;1158;-75
2022/11/22 01:07:52;;;;;;;;;;;;;;;11.94;72.54;98726.50;1056287;28;643;-75
2022/11/22 01:08:43;;;;;;;;;;;;;;;11.94;72.56;98723.00;1055902;28;1340;-75
2022/11/22 01:09:33;;;;;;;;;;;;;;;11.92;72.62;98728.50;1056147;28;730;-75
2022/11/22 01:10:24;;;;;;;;;;;;;;;11.93;72.49;98724.81;1055955;28;1095;-74
2022/11/22 01:11:14;;;;;;;;;;;;;;;11.95;73.09;98727.34;1056219;28;656;-74
2022/11/22 01:12:05;;;;;;;;;;;;;;;11.94;73.27;98737.19;1053813;28;952;-74
2022/11/22 01:12:55;;;;;;;;;;;;;;;11.94;72.75;98739.84;1055650;28;669;-75
2022/11/22 01:13:46;;;;;;;;;;;;;;;11.95;73.36;98735.34;1057260;28;1237;-75
2022/11/22 01:14:36;;;;;;;;;;;;;;;11.94;73.15;98736.34;1057368;28;676;-74
2022/11/22 01:15:26;;;;;;;;;;;;;;;11.96;73.46;98729.00;1057107;28;721;-74
2022/11/22 01:16:17;;;;;;;;;;;;;;;11.99;72.82;98734.88;1059468;27;1130;-74
2022/11/22 01:17:07;;;;;;;;;;;;;;;11.99;73.19;98734.88;1049436;28;1064;-73
2022/11/22 01:17:58;;;;;;;;;;;;;;;12.01;73.01;98726.69;1053448;28;677;-73
2022/11/22 01:18:48;;;;;;;;;;;;;;;12.02;72.23;98733.69;1056204;28;1177;-73
2022/11/22 01:19:39;;;;;;;;;;;;;;;12.02;72.41;98731.03;1055435;28;644;-74
2022/11/22 01:20:29;;;;;;;;;;;;;;;12.02;72.37;98731.84;1053474;28;1079;-74
2022/11/22 01:21:20;;;;;;;;;;;;;;;12.04;71.94;98727.19;1056657;28;681;-74
2022/11/22 01:22:10;;;;;;;;;;;;;;;12.03;72.34;98730.88;1055344;28;1067;-74
2022/11/22 01:23:00;;;;;;;;;;;;;;;12.02;72.59;98717.69;1055743;28;702;-74
2022/11/22 01:23:51;;;;;;;;;;;;;;;11.99;72.34;98716.19;1055877;28;1158;-74
2022/11/22 01:24:41;;;;;;;;;;;;;;;11.99;72.29;98713.53;1053923;28;712;-74
2022/11/22 01:25:32;;;;;;;;;;;;;;;12.00;72.37;98717.03;1055869;28;1154;-74
2022/11/22 01:26:22;;;;;;;;;;;;;;;11.99;73.01;98712.69;1053521;28;698;-74
2022/11/22 01:27:13;;;;;;;;;;;;;;;12.00;73.31;98720.50;1056098;28;1322;-73
2022/11/22 01:28:03;;;;;;;;;;;;;;;12.00;72.99;98725.84;1055466;28;694;-73
2022/11/22 01:28:53;;;;;;;;;;;;;;;12.02;72.86;98723.84;1052508;28;717;-73
2022/11/22 01:29:44;;;;;;;;;;;;;;;12.00;72.92;98720.50;1056964;28;1138;-74
2022/11/22 01:30:34;;;;;;;;;;;;;;;12.01;72.78;98719.50;1056153;28;731;-73
2022/11/22 01:31:25;;;;;;;;;;;;;;;11.99;72.93;98718.84;1059704;27;992;-73
2022/11/22 01:32:15;;;;;;;;;;;;;;;11.99;72.50;98718.03;1060090;27;688;-72
2022/11/22 01:33:06;;;;;;;;;;;;;;;11.97;72.37;98710.19;1057470;28;854;-72
2022/11/22 01:33:56;;;;;;;;;;;;;;;11.96;73.20;98711.16;1053871;28;701;-73
2022/11/22 01:34:46;;;;;;;;;;;;;;;11.96;73.23;98711.16;1053504;28;1896;-72
2022/11/22 01:35:37;;;;;;;;;;;;;;;11.97;72.97;98712.00;1052690;28;1147;-73
2022/11/22 01:36:27;;;;;;;;;;;;;;;11.97;73.31;98704.00;1053103;28;669;-73
2022/11/22 01:37:18;;;;;;;;;;;;;;;11.98;73.00;98703.84;1053622;28;672;-72
2022/11/22 01:38:08;;;;;;;;;;;;;;;11.98;73.35;98705.66;1056416;28;625;-73
2022/11/22 01:38:59;;;;;;;;;;;;;;;11.98;73.27;98706.50;1060654;27;860;-73
2022/11/22 01:39:49;;;;;;;;;;;;;;;11.99;72.44;98705.50;1053756;28;1123;-73
2022/11/22 01:40:39;;;;;;;;;;;;;;;12.00;73.05;98698.34;1055654;28;657;-73
2022/11/22 01:41:30;;;;;;;;;;;;;;;12.00;72.38;98709.03;1056469;28;1135;-73
2022/11/22 01:42:20;;;;;;;;;;;;;;;11.99;73.10;98704.69;1055583;28;702;-73
2022/11/22 01:43:11;;;;;;;;;;;;;;;11.99;73.18;98702.84;1056051;28;1162;-73
2022/11/22 01:44:01;;;;;;;;;;;;;;;11.98;72.97;98700.34;1057291;28;745;-73
2022/11/22 01:44:52;;;;;;;;;;;;;;;11.99;73.02;98713.53;1055248;28;1130;-74
2022/11/22 01:45:42;;;;;;;;;;;;;;;11.97;72.79;98712.00;1055505;28;977;-74
2022/11/22 01:46:33;;;;;;;;;;;;;;;11.97;72.60;98704.00;1051732;28;697;-74
2022/11/22 01:47:23;;;;;;;;;;;;;;;11.97;73.16;98709.34;1051789;28;745;-74
2022/11/22 01:48:14;;;;;;;;;;;;;;;11.97;73.30;98710.19;1052724;28;700;-74
2022/11/22 01:49:04;;;;;;;;;;;;;;;11.98;73.04;98711.84;1056982;28;790;-76
2022/11/22 01:49:54;;;;;;;;;;;;;;;11.98;72.98;98716.34;1055895;28;1162;-76
2022/11/22 01:50:45;;;;;;;;;;;;;;;11.98;72.37;98719.03;1055367;28;722;-76
2022/11/22 01:51:35;;;;;;;;;;;;;;;11.94;72.94;98710.50;1051833;28;602;-75
2022/11/22 01:52:26;;;;;;;;;;;;;;;11.94;73.50;98715.81;1052892;28;720;-75
2022/11/22 01:53:16;;;;;;;;;;;;;;;11.93;73.04;98713.31;1051628;28;1127;-75
2022/11/22 01:54:07;;;;;;;;;;;;;;;11.92;73.30;98711.63;1056728;28;1416;-75
2022/11/22 01:54:57;;;;;;;;;;;;;;;11.93;73.70;98710.66;1053365;28;1193;-75
2022/11/22 01:55:47;;;;;;;;;;;;;;;11.94;73.37;98704.31;1049940;28;1094;-75
2022/11/22 01:56:38;;;;;;;;;;;;;;;11.94;72.78;98707.81;1052069;28;633;-75
2022/11/22 01:57:28;;;;;;;;;;;;;;;11.96;73.40;98713.00;1050299;28;1127;-75
2022/11/22 01:58:19;;;;;;;;;;;;;;;11.95;72.79;98714.00;1049600;28;693;-75
2022/11/22 01:59:09;;;;;;;;;;;;;;;11.95;73.39;98711.31;1053604;28;578;-75
2022/11/22 02:00:00;;;;;;;;;;;;;;;11.94;72.73;98720.31;1052458;28;708;-74
2022/11/22 02:00:50;;;;;;;;;;;;;;;11.94;72.80;98715.00;1053554;28;632;-74
2022/11/22 02:01:40;;;;;;;;;;;;;;;11.95;73.34;98714.00;1053406;28;1232;-74
2022/11/22 02:02:31;;;;;;;;;;;;;;;11.95;72.55;98712.16;1056981;28;1575;-74
2022/11/22 02:03:21;;;;;;;;;;;;;;;11.95;73.47;98717.50;1056031;28;681;-73
2022/11/22 02:04:12;;;;;;;;;;;;;;;11.97;72.59;98714.66;1055696;28;1178;-73
2022/11/22 02:05:02;;;;;;;;;;;;;;;11.96;72.81;98724.50;1055493;28;760;-74
2022/11/22 02:05:53;;;;;;;;;;;;;;;11.96;73.36;98724.50;1056104;28;636;-74
2022/11/22 02:06:43;;;;;;;;;;;;;;;11.96;73.19;98723.69;1052308;28;686;-73
2022/11/22 02:07:33;;;;;;;;;;;;;;;11.94;72.91;98726.50;1053029;28;780;-73
2022/11/22 02:08:24;;;;;;;;;;;;;;;11.94;73.38;98726.50;1052296;28;821;-73
2022/11/22 02:09:14;;;;;;;;;;;;;;;11.93;72.85;98722.16;1055149;28;1123;-74
2022/11/22 02:10:05;;;;;;;;;;;;;;;11.92;73.24;98728.50;1052602;28;2036;-72
2022/11/22 02:10:55;;;;;;;;;;;;;;;11.92;72.80;98722.31;1051846;28;669;-73
2022/11/22 02:11:46;;;;;;;;;;;;;;;11.90;73.08;98714.47;1051956;28;733;-72
2022/11/22 02:12:37;;;;;;;;;;;;;;;11.89;73.45;98726.13;1053040;28;684;-73
2022/11/22 02:13:27;;;;;;;;;;;;;;;11.90;73.19;98722.47;1048198;28;643;-73
2022/11/22 02:14:17;;;;;;;;;;;;;;;11.91;73.30;98721.47;1050015;28;664;-73
2022/11/22 02:15:08;;;;;;;;;;;;;;;11.93;72.53;98724.00;1052985;28;680;-73
2022/11/22 02:15:58;;;;;;;;;;;;;;;11.94;72.57;98726.50;1052785;28;712;-73
2022/11/22 02:16:49;;;;;;;;;;;;;;;11.93;72.87;98724.81;1052890;28;1197;-72
2022/11/22 02:17:39;;;;;;;;;;;;;;;11.93;72.68;98735.50;1053555;28;754;-73
2022/11/22 02:18:29;;;;;;;;;;;;;;;11.94;72.59;98726.50;1052559;28;1136;-72
2022/11/22 02:19:20;;;;;;;;;;;;;;;11.94;72.80;98729.16;1054128;28;706;-72
2022/11/22 02:20:11;;;;;;;;;;;;;;;11.94;73.03;98731.84;1052262;28;1178;-73
2022/11/22 02:21:01;;;;;;;;;;;;;;;11.96;72.47;98731.69;1052867;28;670;-73
2022/11/22 02:21:51;;;;;;;;;;;;;;;11.96;72.70;98739.69;1052139;28;1548;-74
2022/11/22 02:22:42;;;;;;;;;;;;;;;11.95;72.76;98736.19;1054094;28;710;-73
2022/11/22 02:23:32;;;;;;;;;;;;;;;11.95;73.32;98741.53;1052853;28;1221;-73
2022/11/22 02:24:23;;;;;;;;;;;;;;;11.96;72.92;98740.53;1053282;28;779;-73
2022/11/22 02:25:13;;;;;;;;;;;;;;;11.97;73.26;98741.38;1052336;28;756;-73
2022/11/22 02:26:03;;;;;;;;;;;;;;;11.95;72.55;98738.84;1052566;28;708;-73
2022/11/22 02:26:54;;;;;;;;;;;;;;;11.95;72.76;98738.00;1052644;28;1233;-72
2022/11/22 02:27:44;;;;;;;;;;;;;;;11.95;73.55;98738.00;1049339;28;634;-73
2022/11/22 02:28:35;;;;;;;;;;;;;;;11.94;73.00;98741.69;1049430;28;692;-73
2022/11/22 02:29:25;;;;;;;;;;;;;;;11.92;73.66;98733.84;1048708;28;684;-73
2022/11/22 02:30:16;;;;;;;;;;;;;;;11.94;72.93;98741.69;1052877;28;1951;-73
2022/11/22 02:31:06;;;;;;;;;;;;;;;11.93;73.29;98738.16;1049310;28;613;-73
2022/11/22 02:31:56;;;;;;;;;;;;;;;11.92;72.58;98743.66;1052614;28;1474;-73
2022/11/22 02:32:47;;;;;;;;;;;;;;;11.94;72.67;98747.03;1053751;28;656;-74
2022/11/22 02:33:37;;;;;;;;;;;;;;;11.95;72.86;98749.53;1053063;28;1198;-74
2022/11/22 02:34:28;;;;;;;;;;;;;;;11.95;72.68;98749.53;1053720;28;1068;-74
2022/11/22 02:35:18;;;;;;;;;;;;;;;11.96;72.91;98747.69;1054241;28;714;-74
2022/11/22 02:36:08;;;;;;;;;;;;;;;11.94;72.93;98753.19;1053751;28;1174;-74
2022/11/22 02:36:59;;;;;;;;;;;;;;;11.96;72.59;98748.53;1054871;28;725;-74
2022/11/22 02:37:50;;;;;;;;;;;;;;;11.93;73.27;98746.19;1049568;28;644;-74
2022/11/22 02:38:40;;;;;;;;;;;;;;;11.95;72.54;98749.53;1052489;28;718;-74
2022/11/22 02:39:31;;;;;;;;;;;;;;;11.95;73.10;98740.69;1053568;28;1110;-75
2022/11/22 02:40:21;;;;;;;;;;;;;;;11.94;72.72;98741.69;1054172;28;788;-74
2022/11/22 02:41:11;;;;;;;;;;;;;;;11.93;72.70;98751.53;1045462;28;665;-75
2022/11/22 02:42:02;;;;;;;;;;;;;;;11.94;72.72;98741.69;1047080;28;1135;-75
2022/11/22 02:42:52;;;;;;;;;;;;;;;11.96;72.47;98737.03;1052732;28;661;-75
2022/11/22 02:43:43;;;;;;;;;;;;;;;11.95;72.59;98746.88;1051577;28;1111;-72
2022/11/22 02:44:33;;;;;;;;;;;;;;;11.96;73.28;98748.53;1053690;28;613;-72
2022/11/22 02:45:23;;;;;;;;;;;;;;;11.96;72.88;98751.22;1054381;28;716;-73
2022/11/22 02:46:22;;;;;;;;;;;;;;;11.94;73.39;98739.84;1054100;28;1162;-73
2022/11/22 02:47:12;;;;;;;;;;;;;;;11.95;72.51;98744.19;1050666;28;641;-73
2022/11/22 02:48:04;;;;;;;;;;;;;;;11.94;73.33;98742.53;1051012;28;984;-73
2022/11/22 02:48:54;;;;;;;;;;;;;;;11.94;72.70;98745.19;1053869;28;677;-73
2022/11/22 02:49:44;;;;;;;;;;;;;;;11.95;73.14;98746.88;1054720;28;1171;-73
2022/11/22 02:50:35;;;;;;;;;;;;;;;11.93;73.09;98745.34;1052909;28;1218;-72
2022/11/22 02:51:25;;;;;;;;;;;;;;;11.93;72.70;98750.69;1054708;28;1359;-72
2022/11/22 02:52:16;;;;;;;;;;;;;;;11.93;73.25;98751.53;1053613;28;991;-75
2022/11/22 02:53:06;;;;;;;;;;;;;;;11.92;72.86;98744.50;1054890;28;698;-75
2022/11/22 02:53:57;;;;;;;;;;;;;;;11.91;72.58;98748.16;1049619;28;668;-73
2022/11/22 02:54:47;;;;;;;;;;;;;;;11.92;73.32;98754.34;1053807;28;1007;-74
2022/11/22 02:55:38;;;;;;;;;;;;;;;11.92;73.02;98749.84;1054848;28;706;-74
2022/11/22 02:56:28;;;;;;;;;;;;;;;11.92;72.65;98741.84;1049524;28;660;-73
2022/11/22 02:57:19;;;;;;;;;;;;;;;11.90;72.68;98741.16;1049043;28;633;-74
2022/11/22 02:58:09;;;;;;;;;;;;;;;11.92;72.59;98743.66;1053098;28;661;-74
2022/11/22 02:59:00;;;;;;;;;;;;;;;11.91;72.60;98737.50;1052853;28;1190;-74
2022/11/22 02:59:50;;;;;;;;;;;;;;;11.93;72.66;98748.00;1049979;28;653;-75
2022/11/22 03:00:40;;;;;;;;;;;;;;;11.91;73.39;98748.16;1050089;28;788;-73
2022/11/22 03:01:31;;;;;;;;;;;;;;;11.90;72.42;98740.31;1048794;28;739;-73
2022/11/22 03:02:21;;;;;;;;;;;;;;;11.91;72.76;98748.16;1049568;28;774;-73
2022/11/22 03:03:12;;;;;;;;;;;;;;;11.92;73.15;98749.84;1049550;28;606;-74
2022/11/22 03:04:02;;;;;;;;;;;;;;;11.92;72.82;98741.00;1050938;28;726;-75
2022/11/22 03:04:52;;;;;;;;;;;;;;;11.92;73.08;98741.00;1049511;28;649;-73
2022/11/22 03:05:43;;;;;;;;;;;;;;;11.91;72.46;98744.66;1049809;28;770;-74
2022/11/22 03:06:34;;;;;;;;;;;;;;;11.92;73.41;98747.19;1049583;28;642;-74
2022/11/22 03:07:24;;;;;;;;;;;;;;;11.91;72.63;98755.34;1052161;28;996;-74
2022/11/22 03:08:14;;;;;;;;;;;;;;;11.92;73.30;98759.69;1054720;28;638;-73
2022/11/22 03:09:05;;;;;;;;;;;;;;;11.92;73.23;98760.53;1054021;28;1186;-73
2022/11/22 03:09:55;;;;;;;;;;;;;;;11.90;72.88;98762.50;1052641;28;1121;-73
2022/11/22 03:10:46;;;;;;;;;;;;;;;11.86;73.00;98760.31;1054725;28;780;-74
2022/11/22 03:11:36;;;;;;;;;;;;;;;11.87;72.57;98760.16;1048811;28;662;-74
2022/11/22 03:12:26;;;;;;;;;;;;;;;11.88;72.95;98759.16;1050392;28;728;-73
2022/11/22 03:13:17;;;;;;;;;;;;;;;11.89;73.36;98770.66;1054885;28;676;-74
2022/11/22 03:14:07;;;;;;;;;;;;;;;11.88;72.64;98758.31;1050601;28;704;-73
2022/11/22 03:14:58;;;;;;;;;;;;;;;11.88;72.76;98769.84;1048457;28;694;-73
2022/11/22 03:15:48;;;;;;;;;;;;;;;11.89;73.34;98765.34;1051290;28;1111;-73
2022/11/22 03:16:38;;;;;;;;;;;;;;;11.90;72.61;98769.69;1054213;28;731;-73
2022/11/22 03:17:29;;;;;;;;;;;;;;;11.87;72.46;98770.81;1054687;28;1230;-73
2022/11/22 03:18:19;;;;;;;;;;;;;;;11.90;73.46;98778.53;1053607;28;614;-73
2022/11/22 03:19:10;;;;;;;;;;;;;;;11.88;73.04;98775.16;1052309;28;1071;-73
2022/11/22 03:20:00;;;;;;;;;;;;;;;11.89;72.71;98776.84;1054114;28;994;-73
2022/11/22 03:20:51;;;;;;;;;;;;;;;11.89;73.42;98776.84;1053663;28;649;-74
2022/11/22 03:21:41;;;;;;;;;;;;;;;11.89;73.48;98768.84;1054202;28;1338;-74
2022/11/22 03:22:31;;;;;;;;;;;;;;;11.89;72.93;98771.50;1048453;28;637;-75
2022/11/22 03:23:22;;;;;;;;;;;;;;;11.87;72.77;98773.50;1048695;28;1358;-74
2022/11/22 03:24:12;;;;;;;;;;;;;;;11.87;73.18;98772.66;1049409;28;658;-74
2022/11/22 03:25:03;;;;;;;;;;;;;;;11.87;73.35;98767.31;1049904;28;669;-75
2022/11/22 03:25:53;;;;;;;;;;;;;;;11.87;72.83;98767.31;1050627;28;700;-75
2022/11/22 03:26:43;;;;;;;;;;;;;;;11.87;72.85;98761.97;1053196;28;698;-74
2022/11/22 03:27:34;;;;;;;;;;;;;;;11.87;73.58;98767.31;1054185;28;715;-74
2022/11/22 03:28:24;;;;;;;;;;;;;;;11.86;72.79;98771.81;1052850;28;1226;-74
2022/11/22 03:29:15;;;;;;;;;;;;;;;11.85;72.95;98762.13;1053673;28;681;-74
2022/11/22 03:30:05;;;;;;;;;;;;;;;11.86;72.87;98766.47;1051446;28;1972;-74
2022/11/22 03:30:56;;;;;;;;;;;;;;;11.87;73.57;98762.81;1054552;28;1193;-74
2022/11/22 03:31:46;;;;;;;;;;;;;;;11.86;73.27;98770.97;1051145;28;633;-74
2022/11/22 03:32:37;;;;;;;;;;;;;;;11.87;73.70;98773.50;1050692;28;1163;-74
2022/11/22 03:33:27;;;;;;;;;;;;;;;11.87;73.41;98773.50;1049950;28;688;-74
2022/11/22 03:34:17;;;;;;;;;;;;;;;11.87;72.91;98773.50;1050461;28;1221;-73
2022/11/22 03:35:08;;;;;;;;;;;;;;;11.86;73.04;98777.16;1049997;28;661;-74
2022/11/22 03:35:58;;;;;;;;;;;;;;;11.87;73.00;98781.50;1050091;28;1198;-74
2022/11/22 03:36:49;;;;;;;;;;;;;;;11.86;73.35;98779.00;1050049;28;665;-74
2022/11/22 03:37:39;;;;;;;;;;;;;;;11.86;73.25;98781.66;1049778;28;665;-73
2022/11/22 03:38:30;;;;;;;;;;;;;;;11.82;73.15;98771.28;1052895;28;1174;-73
2022/11/22 03:39:20;;;;;;;;;;;;;;;11.74;73.10;98781.91;1053977;28;707;-74
2022/11/22 03:40:10;;;;;;;;;;;;;;;11.71;73.22;98778.72;1052747;28;1170;-74
2022/11/22 03:41:01;;;;;;;;;;;;;;;11.73;73.80;98766.88;1054354;28;1350;-73
2022/11/22 03:41:54;;;;;;;;;;;;;;;11.75;73.91;98770.25;1052809;28;1210;-73
2022/11/22 03:42:44;;;;;;;;;;;;;;;11.76;73.62;98771.94;1049841;28;707;-73
2022/11/22 03:43:35;;;;;;;;;;;;;;;11.77;73.35;98770.94;1045293;28;1063;-74
2022/11/22 03:44:25;;;;;;;;;;;;;;;11.79;72.92;98773.47;1050074;28;795;-75
2022/11/22 03:45:15;;;;;;;;;;;;;;;11.80;73.41;98772.47;1054313;28;1217;-74
2022/11/22 03:46:06;;;;;;;;;;;;;;;11.79;73.28;98770.78;1054135;28;895;-74
2022/11/22 03:46:56;;;;;;;;;;;;;;;11.76;73.12;98774.63;1049324;28;693;-74
2022/11/22 03:47:47;;;;;;;;;;;;;;;11.79;73.41;98773.47;1049419;28;688;-75
2022/11/22 03:48:37;;;;;;;;;;;;;;;11.80;72.84;98770.66;1048661;28;701;-74
2022/11/22 03:49:28;;;;;;;;;;;;;;;11.82;73.56;98778.50;1048716;28;618;-74
2022/11/22 03:50:18;;;;;;;;;;;;;;;11.83;73.77;98769.47;1049110;28;1894;-75
2022/11/22 03:51:08;;;;;;;;;;;;;;;11.84;73.57;98771.13;1052585;28;980;-74
2022/11/22 03:51:59;;;;;;;;;;;;;;;11.84;73.10;98779.16;1054467;28;671;-74
2022/11/22 03:52:49;;;;;;;;;;;;;;;11.84;73.27;98773.81;1049933;28;680;-72
2022/11/22 03:53:40;;;;;;;;;;;;;;;11.85;73.40;98772.81;1049423;28;1209;-73
2022/11/22 03:54:30;;;;;;;;;;;;;;;11.86;73.63;98781.66;1052822;28;698;-73
2022/11/22 03:55:20;;;;;;;;;;;;;;;11.87;73.03;98783.34;1052190;28;702;-74
2022/11/22 03:56:11;;;;;;;;;;;;;;;11.87;73.10;98783.34;1054058;28;656;-74
2022/11/22 03:57:01;;;;;;;;;;;;;;;11.86;72.77;98787.84;1055355;27;1177;-73
2022/11/22 03:57:52;;;;;;;;;;;;;;;11.86;72.97;98787.00;1056250;28;1294;-73
2022/11/22 03:58:42;;;;;;;;;;;;;;;11.82;73.23;98797.19;1050071;28;794;-73
2022/11/22 03:59:33;;;;;;;;;;;;;;;11.83;73.62;98790.81;1050356;28;648;-73
2022/11/22 04:00:23;;;;;;;;;;;;;;;11.85;73.63;98790.66;1052489;28;695;-73
2022/11/22 04:01:13;;;;;;;;;;;;;;;11.82;72.77;98797.97;1052061;28;1036;-74
2022/11/22 04:02:04;;;;;;;;;;;;;;;11.83;72.91;98794.31;1054611;28;785;-74
2022/11/22 04:02:54;;;;;;;;;;;;;;;11.83;73.51;98790.81;1052677;28;1213;-74
2022/11/22 04:03:45;;;;;;;;;;;;;;;11.84;72.72;98795.16;1053478;28;888;-74
2022/11/22 04:04:35;;;;;;;;;;;;;;;11.85;73.48;98790.66;1052629;28;1139;-74
2022/11/22 04:05:26;;;;;;;;;;;;;;;11.85;72.70;98796.84;1049873;28;673;-74
2022/11/22 04:06:16;;;;;;;;;;;;;;;11.86;73.57;98793.16;1052114;28;1151;-73
2022/11/22 04:07:06;;;;;;;;;;;;;;;11.84;72.96;98795.16;1049726;28;898;-73
2022/11/22 04:07:57;;;;;;;;;;;;;;;11.82;73.12;98797.97;1049643;28;1214;-73
2022/11/22 04:08:47;;;;;;;;;;;;;;;11.82;73.09;98803.31;1049787;28;698;-72
2022/11/22 04:09:38;;;;;;;;;;;;;;;11.79;72.71;98795.66;1055135;28;1229;-75
2022/11/22 04:10:28;;;;;;;;;;;;;;;11.79;73.09;98802.81;1054168;28;1905;-75
2022/11/22 04:11:19;;;;;;;;;;;;;;;11.78;73.16;98799.31;1050402;28;727;-75
2022/11/22 04:12:09;;;;;;;;;;;;;;;11.78;73.05;98798.47;1057203;28;728;-75
2022/11/22 04:12:59;;;;;;;;;;;;;;;11.78;73.57;98795.81;1057660;28;1194;-73
2022/11/22 04:15:05;;;;;;;;;;;;;;;11.76;72.49;98801.31;1049636;28;705;-74
2022/11/22 04:15:56;;;;;;;;;;;;;;;11.71;72.73;98803.56;1049686;28;626;-74
2022/11/22 04:16:46;;;;;;;;;;;;;;;11.74;72.99;98799.75;1051689;28;1095;-75
2022/11/22 04:17:40;;;;;;;;;;;;;;;11.75;73.49;98801.41;1054558;28;710;-74
2022/11/22 04:18:30;;;;;;;;;;;;;;;11.77;72.91;98810.13;1053406;28;743;-74
2022/11/22 04:19:20;;;;;;;;;;;;;;;11.77;73.68;98800.31;1053763;28;1158;-74
2022/11/22 04:21:32;;;;;;;;;;;;;;;11.81;73.75;98806.16;1053209;28;1268;-74
2022/11/22 04:22:23;;;;;;;;;;;;;;;11.79;73.44;98801.00;1053759;28;1186;-74
2022/11/22 04:23:13;;;;;;;;;;;;;;;11.79;73.42;98803.66;1048120;27;680;-74
2022/11/22 04:25:13;;;;;;;;;;;;;;;11.77;73.46;98796.81;1050925;28;660;-73
2022/11/22 04:26:03;;;;;;;;;;;;;;;11.78;73.94;98801.97;1049384;28;799;-73
2022/11/22 04:26:54;;;;;;;;;;;;;;;11.78;73.57;98801.97;1054026;28;730;-73
2022/11/22 04:27:44;;;;;;;;;;;;;;;11.80;73.58;98799.16;1050670;28;820;-73
2022/11/22 04:28:34;;;;;;;;;;;;;;;11.81;73.54;98800.84;1049958;28;1218;-73
2022/11/22 04:29:25;;;;;;;;;;;;;;;11.70;72.90;98803.72;1049630;28;636;-73
2022/11/22 04:30:15;;;;;;;;;;;;;;;11.71;73.53;98800.91;1049005;28;1939;-73
2022/11/22 04:33:40;;;;;;;;;;;;;;;11.77;72.87;98808.31;1036767;28;786;-73
2022/11/22 04:34:31;;;;;;;;;;;;;;;11.77;73.64;98805.63;1033750;28;1069;-73